sensor_id;sensor_type;location;lat;lon;timestamp;P1;durP1;ratioP1;P2;durP2;ratioP2
23181;SDS011;11759;51.282;6.642;2023-03-14T00:00:58;8.32;;;2.35;;
23181;SDS011;11759;51.282;6.642;2023-03-14T00:03:25;6.88;;;1.70;;
23181;SDS011;11759;51.282;6.642;2023-03-14T00:05:51;10.40;;;2.05;;
23181;SDS011;11759;51.282;6.642;2023-03-14T00:08:18;6.20;;;1.73;;
23181;SDS011;11759;51.282;6.642;2023-03-14T00:10:47;14.18;;;2.10;;
23181;SDS011;11759;51.282;6.642;2023-03-14T00:13:14;6.65;;;1.65;;
23181;SDS011;11759;51.282;6.642;2023-03-14T00:15:40;13.70;;;2.35;;
23181;SDS011;11759;51.282;6.642;2023-03-14T00:18:07;9.50;;;2.00;;
23181;SDS011;11759;51.282;6.642;2023-03-14T00:20:33;11.52;;;2.33;;
23181;SDS011;11759;51.282;6.642;2023-03-14T00:23:00;10.55;;;1.85;;
23181;SDS011;11759;51.282;6.642;2023-03-14T00:25:29;9.55;;;2.00;;
23181;SDS011;11759;51.282;6.642;2023-03-14T00:27:56;9.15;;;2.20;;
23181;SDS011;11759;51.282;6.642;2023-03-14T00:30:23;10.82;;;1.65;;
23181;SDS011;11759;51.282;6.642;2023-03-14T00:32:49;5.72;;;1.48;;
23181;SDS011;11759;51.282;6.642;2023-03-14T00:35:18;7.97;;;1.50;;
23181;SDS011;11759;51.282;6.642;2023-03-14T00:37:48;7.97;;;1.35;;
23181;SDS011;11759;51.282;6.642;2023-03-14T00:40:17;4.53;;;1.08;;
23181;SDS011;11759;51.282;6.642;2023-03-14T00:42:44;6.93;;;1.42;;
23181;SDS011;11759;51.282;6.642;2023-03-14T00:45:11;7.72;;;1.10;;
23181;SDS011;11759;51.282;6.642;2023-03-14T00:47:38;12.23;;;2.35;;
23181;SDS011;11759;51.282;6.642;2023-03-14T00:50:05;6.70;;;1.70;;
23181;SDS011;11759;51.282;6.642;2023-03-14T00:52:32;7.25;;;1.58;;
23181;SDS011;11759;51.282;6.642;2023-03-14T00:54:58;10.60;;;1.80;;
23181;SDS011;11759;51.282;6.642;2023-03-14T00:57:27;11.35;;;2.03;;
23181;SDS011;11759;51.282;6.642;2023-03-14T00:59:54;12.63;;;2.63;;
23181;SDS011;11759;51.282;6.642;2023-03-14T01:02:21;13.02;;;2.25;;
23181;SDS011;11759;51.282;6.642;2023-03-14T01:04:48;10.40;;;2.20;;
23181;SDS011;11759;51.282;6.642;2023-03-14T01:07:15;14.20;;;1.92;;
23181;SDS011;11759;51.282;6.642;2023-03-14T01:09:42;17.02;;;2.22;;
23181;SDS011;11759;51.282;6.642;2023-03-14T01:12:09;15.73;;;2.55;;
23181;SDS011;11759;51.282;6.642;2023-03-14T01:14:35;17.88;;;2.42;;
23181;SDS011;11759;51.282;6.642;2023-03-14T01:17:03;13.70;;;1.73;;
23181;SDS011;11759;51.282;6.642;2023-03-14T01:19:29;9.68;;;2.00;;
23181;SDS011;11759;51.282;6.642;2023-03-14T01:21:58;8.30;;;1.45;;
23181;SDS011;11759;51.282;6.642;2023-03-14T01:24:24;10.32;;;2.20;;
23181;SDS011;11759;51.282;6.642;2023-03-14T01:26:51;13.25;;;1.70;;
23181;SDS011;11759;51.282;6.642;2023-03-14T01:29:18;10.80;;;1.92;;
23181;SDS011;11759;51.282;6.642;2023-03-14T01:31:44;15.43;;;2.05;;
23181;SDS011;11759;51.282;6.642;2023-03-14T01:34:11;13.07;;;2.15;;
23181;SDS011;11759;51.282;6.642;2023-03-14T01:36:38;13.27;;;2.17;;
23181;SDS011;11759;51.282;6.642;2023-03-14T01:39:04;15.27;;;2.65;;
23181;SDS011;11759;51.282;6.642;2023-03-14T01:41:32;8.70;;;1.98;;
23181;SDS011;11759;51.282;6.642;2023-03-14T01:43:59;11.25;;;2.08;;
23181;SDS011;11759;51.282;6.642;2023-03-14T01:46:28;12.48;;;2.03;;
23181;SDS011;11759;51.282;6.642;2023-03-14T01:52:08;7.22;;;1.77;;
23181;SDS011;11759;51.282;6.642;2023-03-14T01:57:22;8.85;;;2.00;;
23181;SDS011;11759;51.282;6.642;2023-03-14T02:00:17;11.23;;;2.22;;
23181;SDS011;11759;51.282;6.642;2023-03-14T02:02:50;14.98;;;2.13;;
23181;SDS011;11759;51.282;6.642;2023-03-14T02:05:24;11.30;;;2.20;;
23181;SDS011;11759;51.282;6.642;2023-03-14T02:07:58;13.65;;;2.55;;
23181;SDS011;11759;51.282;6.642;2023-03-14T02:10:31;12.60;;;2.75;;
23181;SDS011;11759;51.282;6.642;2023-03-14T02:13:03;12.93;;;2.50;;
23181;SDS011;11759;51.282;6.642;2023-03-14T02:15:50;22.80;;;3.08;;
23181;SDS011;11759;51.282;6.642;2023-03-14T02:18:35;15.13;;;2.75;;
23181;SDS011;11759;51.282;6.642;2023-03-14T02:22:05;18.65;;;2.78;;
23181;SDS011;11759;51.282;6.642;2023-03-14T02:24:17;21.52;;;2.65;;
23181;SDS011;11759;51.282;6.642;2023-03-14T02:27:08;18.83;;;3.05;;
23181;SDS011;11759;51.282;6.642;2023-03-14T02:29:43;15.63;;;2.55;;
23181;SDS011;11759;51.282;6.642;2023-03-14T02:32:14;10.20;;;2.42;;
23181;SDS011;11759;51.282;6.642;2023-03-14T02:34:41;10.57;;;2.03;;
23181;SDS011;11759;51.282;6.642;2023-03-14T02:37:11;16.60;;;2.38;;
23181;SDS011;11759;51.282;6.642;2023-03-14T02:39:40;11.20;;;2.28;;
23181;SDS011;11759;51.282;6.642;2023-03-14T02:42:12;9.65;;;1.90;;
23181;SDS011;11759;51.282;6.642;2023-03-14T02:44:48;6.78;;;1.90;;
23181;SDS011;11759;51.282;6.642;2023-03-14T02:47:20;9.82;;;2.08;;
23181;SDS011;11759;51.282;6.642;2023-03-14T02:49:49;14.40;;;2.42;;
23181;SDS011;11759;51.282;6.642;2023-03-14T02:52:25;15.18;;;2.00;;
23181;SDS011;11759;51.282;6.642;2023-03-14T02:54:51;15.73;;;2.10;;
23181;SDS011;11759;51.282;6.642;2023-03-14T02:57:18;10.50;;;2.20;;
23181;SDS011;11759;51.282;6.642;2023-03-14T02:59:44;14.52;;;2.15;;
23181;SDS011;11759;51.282;6.642;2023-03-14T03:02:15;7.38;;;1.65;;
23181;SDS011;11759;51.282;6.642;2023-03-14T03:04:42;15.30;;;1.88;;
23181;SDS011;11759;51.282;6.642;2023-03-14T03:07:08;9.63;;;1.80;;
23181;SDS011;11759;51.282;6.642;2023-03-14T03:09:35;7.95;;;1.70;;
23181;SDS011;11759;51.282;6.642;2023-03-14T03:12:02;12.82;;;2.55;;
23181;SDS011;11759;51.282;6.642;2023-03-14T03:14:29;12.23;;;1.90;;
23181;SDS011;11759;51.282;6.642;2023-03-14T03:16:58;12.18;;;1.88;;
23181;SDS011;11759;51.282;6.642;2023-03-14T03:19:25;10.55;;;1.58;;
23181;SDS011;11759;51.282;6.642;2023-03-14T03:21:52;14.35;;;1.90;;
23181;SDS011;11759;51.282;6.642;2023-03-14T03:24:18;10.75;;;1.83;;
23181;SDS011;11759;51.282;6.642;2023-03-14T03:26:45;9.80;;;1.77;;
23181;SDS011;11759;51.282;6.642;2023-03-14T03:29:12;13.25;;;1.95;;
23181;SDS011;11759;51.282;6.642;2023-03-14T03:31:38;11.75;;;1.75;;
23181;SDS011;11759;51.282;6.642;2023-03-14T03:34:05;14.02;;;3.10;;
23181;SDS011;11759;51.282;6.642;2023-03-14T03:36:32;12.80;;;2.30;;
23181;SDS011;11759;51.282;6.642;2023-03-14T03:38:59;17.13;;;2.75;;
23181;SDS011;11759;51.282;6.642;2023-03-14T03:41:26;15.95;;;2.35;;
23181;SDS011;11759;51.282;6.642;2023-03-14T03:43:52;14.73;;;2.33;;
23181;SDS011;11759;51.282;6.642;2023-03-14T03:46:20;18.98;;;2.67;;
23181;SDS011;11759;51.282;6.642;2023-03-14T03:48:47;20.13;;;2.25;;
23181;SDS011;11759;51.282;6.642;2023-03-14T03:51:14;13.65;;;3.10;;
23181;SDS011;11759;51.282;6.642;2023-03-14T03:53:42;12.35;;;2.45;;
23181;SDS011;11759;51.282;6.642;2023-03-14T03:56:12;9.70;;;2.03;;
23181;SDS011;11759;51.282;6.642;2023-03-14T03:58:40;11.32;;;1.90;;
23181;SDS011;11759;51.282;6.642;2023-03-14T04:01:08;6.03;;;1.40;;
23181;SDS011;11759;51.282;6.642;2023-03-14T04:03:36;7.70;;;1.60;;
23181;SDS011;11759;51.282;6.642;2023-03-14T04:06:08;7.68;;;1.45;;
23181;SDS011;11759;51.282;6.642;2023-03-14T04:08:38;4.40;;;1.17;;
23181;SDS011;11759;51.282;6.642;2023-03-14T04:11:09;8.45;;;1.20;;
23181;SDS011;11759;51.282;6.642;2023-03-14T04:13:50;5.75;;;0.82;;
23181;SDS011;11759;51.282;6.642;2023-03-14T04:16:20;6.53;;;1.45;;
23181;SDS011;11759;51.282;6.642;2023-03-14T04:18:59;5.05;;;0.98;;
23181;SDS011;11759;51.282;6.642;2023-03-14T04:21:26;5.47;;;1.30;;
23181;SDS011;11759;51.282;6.642;2023-03-14T04:23:56;3.72;;;1.08;;
23181;SDS011;11759;51.282;6.642;2023-03-14T04:26:25;7.60;;;1.95;;
23181;SDS011;11759;51.282;6.642;2023-03-14T04:28:51;2.25;;;1.10;;
23181;SDS011;11759;51.282;6.642;2023-03-14T04:31:20;6.45;;;1.20;;
23181;SDS011;11759;51.282;6.642;2023-03-14T04:33:48;4.82;;;1.35;;
23181;SDS011;11759;51.282;6.642;2023-03-14T04:36:21;7.07;;;1.55;;
23181;SDS011;11759;51.282;6.642;2023-03-14T04:38:48;7.30;;;1.58;;
23181;SDS011;11759;51.282;6.642;2023-03-14T04:41:19;4.18;;;1.30;;
23181;SDS011;11759;51.282;6.642;2023-03-14T04:43:48;2.75;;;0.77;;
23181;SDS011;11759;51.282;6.642;2023-03-14T04:46:15;6.28;;;0.98;;
23181;SDS011;11759;51.282;6.642;2023-03-14T04:48:42;4.13;;;0.88;;
23181;SDS011;11759;51.282;6.642;2023-03-14T04:51:10;5.13;;;1.10;;
23181;SDS011;11759;51.282;6.642;2023-03-14T04:53:36;3.45;;;1.05;;
23181;SDS011;11759;51.282;6.642;2023-03-14T04:56:07;5.38;;;1.00;;
23181;SDS011;11759;51.282;6.642;2023-03-14T04:58:37;3.25;;;0.90;;
23181;SDS011;11759;51.282;6.642;2023-03-14T05:01:05;2.88;;;1.20;;
23181;SDS011;11759;51.282;6.642;2023-03-14T05:03:58;8.52;;;1.75;;
23181;SDS011;11759;51.282;6.642;2023-03-14T05:06:34;4.80;;;1.30;;
23181;SDS011;11759;51.282;6.642;2023-03-14T05:09:14;8.02;;;1.25;;
23181;SDS011;11759;51.282;6.642;2023-03-14T05:12:00;2.90;;;1.40;;
23181;SDS011;11759;51.282;6.642;2023-03-14T05:14:47;11.02;;;1.73;;
23181;SDS011;11759;51.282;6.642;2023-03-14T05:17:43;10.40;;;1.33;;
23181;SDS011;11759;51.282;6.642;2023-03-14T05:20:25;13.27;;;1.85;;
23181;SDS011;11759;51.282;6.642;2023-03-14T05:23:08;7.03;;;1.85;;
23181;SDS011;11759;51.282;6.642;2023-03-14T05:25:47;6.70;;;1.60;;
23181;SDS011;11759;51.282;6.642;2023-03-14T05:28:30;8.98;;;1.90;;
23181;SDS011;11759;51.282;6.642;2023-03-14T05:31:23;12.45;;;2.15;;
23181;SDS011;11759;51.282;6.642;2023-03-14T05:34:08;10.88;;;2.00;;
23181;SDS011;11759;51.282;6.642;2023-03-14T05:37:01;10.05;;;1.80;;
23181;SDS011;11759;51.282;6.642;2023-03-14T05:39:56;6.38;;;1.50;;
23181;SDS011;11759;51.282;6.642;2023-03-14T05:42:41;7.72;;;1.40;;
23181;SDS011;11759;51.282;6.642;2023-03-14T05:45:32;8.70;;;1.48;;
23181;SDS011;11759;51.282;6.642;2023-03-14T05:48:14;5.03;;;1.55;;
23181;SDS011;11759;51.282;6.642;2023-03-14T05:50:47;8.25;;;1.48;;
23181;SDS011;11759;51.282;6.642;2023-03-14T05:53:36;5.43;;;1.15;;
23181;SDS011;11759;51.282;6.642;2023-03-14T05:56:24;5.63;;;1.00;;
23181;SDS011;11759;51.282;6.642;2023-03-14T05:59:14;4.00;;;0.80;;
23181;SDS011;11759;51.282;6.642;2023-03-14T06:01:59;4.50;;;1.35;;
23181;SDS011;11759;51.282;6.642;2023-03-14T06:04:33;8.10;;;1.35;;
23181;SDS011;11759;51.282;6.642;2023-03-14T06:06:59;5.80;;;1.30;;
23181;SDS011;11759;51.282;6.642;2023-03-14T06:09:30;1.97;;;0.90;;
23181;SDS011;11759;51.282;6.642;2023-03-14T06:12:00;1.70;;;1.10;;
23181;SDS011;11759;51.282;6.642;2023-03-14T06:14:32;1.50;;;0.77;;
23181;SDS011;11759;51.282;6.642;2023-03-14T06:16:59;4.90;;;1.02;;
23181;SDS011;11759;51.282;6.642;2023-03-14T06:19:28;1.40;;;1.00;;
23181;SDS011;11759;51.282;6.642;2023-03-14T06:21:55;2.50;;;0.90;;
23181;SDS011;11759;51.282;6.642;2023-03-14T06:24:24;3.17;;;1.05;;
23181;SDS011;11759;51.282;6.642;2023-03-14T06:26:51;2.63;;;0.93;;
23181;SDS011;11759;51.282;6.642;2023-03-14T06:29:19;2.33;;;0.85;;
23181;SDS011;11759;51.282;6.642;2023-03-14T06:31:45;3.83;;;1.00;;
23181;SDS011;11759;51.282;6.642;2023-03-14T06:34:15;1.75;;;0.90;;
23181;SDS011;11759;51.282;6.642;2023-03-14T06:36:42;2.30;;;0.80;;
23181;SDS011;11759;51.282;6.642;2023-03-14T06:39:09;2.63;;;0.80;;
23181;SDS011;11759;51.282;6.642;2023-03-14T06:41:40;6.78;;;0.90;;
23181;SDS011;11759;51.282;6.642;2023-03-14T06:44:08;4.63;;;1.10;;
23181;SDS011;11759;51.282;6.642;2023-03-14T06:46:35;3.22;;;0.82;;
23181;SDS011;11759;51.282;6.642;2023-03-14T06:49:02;3.30;;;0.63;;
23181;SDS011;11759;51.282;6.642;2023-03-14T06:51:30;0.88;;;0.75;;
23181;SDS011;11759;51.282;6.642;2023-03-14T06:53:57;2.08;;;0.82;;
23181;SDS011;11759;51.282;6.642;2023-03-14T06:56:26;2.20;;;1.00;;
23181;SDS011;11759;51.282;6.642;2023-03-14T06:58:55;2.45;;;0.90;;
23181;SDS011;11759;51.282;6.642;2023-03-14T07:01:25;1.38;;;0.90;;
23181;SDS011;11759;51.282;6.642;2023-03-14T07:04:03;1.48;;;0.70;;
23181;SDS011;11759;51.282;6.642;2023-03-14T07:06:31;3.38;;;0.95;;
23181;SDS011;11759;51.282;6.642;2023-03-14T07:08:57;2.15;;;0.90;;
23181;SDS011;11759;51.282;6.642;2023-03-14T07:11:24;1.08;;;0.93;;
23181;SDS011;11759;51.282;6.642;2023-03-14T07:13:50;5.53;;;1.33;;
23181;SDS011;11759;51.282;6.642;2023-03-14T07:16:17;1.52;;;1.00;;
23181;SDS011;11759;51.282;6.642;2023-03-14T07:18:44;5.65;;;1.15;;
23181;SDS011;11759;51.282;6.642;2023-03-14T07:21:11;3.78;;;1.10;;
23181;SDS011;11759;51.282;6.642;2023-03-14T07:23:38;2.90;;;1.08;;
23181;SDS011;11759;51.282;6.642;2023-03-14T07:26:06;2.55;;;0.95;;
23181;SDS011;11759;51.282;6.642;2023-03-14T07:28:36;2.28;;;1.27;;
23181;SDS011;11759;51.282;6.642;2023-03-14T07:31:07;1.92;;;1.10;;
23181;SDS011;11759;51.282;6.642;2023-03-14T07:33:36;3.03;;;1.50;;
23181;SDS011;11759;51.282;6.642;2023-03-14T07:36:03;2.67;;;1.27;;
23181;SDS011;11759;51.282;6.642;2023-03-14T07:38:30;3.33;;;1.17;;
23181;SDS011;11759;51.282;6.642;2023-03-14T07:41:09;4.38;;;1.45;;
23181;SDS011;11759;51.282;6.642;2023-03-14T07:43:42;3.17;;;1.60;;
23181;SDS011;11759;51.282;6.642;2023-03-14T07:46:08;1.70;;;1.20;;
23181;SDS011;11759;51.282;6.642;2023-03-14T07:48:35;3.55;;;1.55;;
23181;SDS011;11759;51.282;6.642;2023-03-14T07:51:01;5.97;;;1.60;;
23181;SDS011;11759;51.282;6.642;2023-03-14T07:53:28;3.38;;;1.58;;
23181;SDS011;11759;51.282;6.642;2023-03-14T07:55:55;2.83;;;1.63;;
23181;SDS011;11759;51.282;6.642;2023-03-14T07:58:21;7.78;;;1.73;;
23181;SDS011;11759;51.282;6.642;2023-03-14T08:00:48;6.15;;;2.10;;
23181;SDS011;11759;51.282;6.642;2023-03-14T08:03:15;5.70;;;1.70;;
23181;SDS011;11759;51.282;6.642;2023-03-14T08:05:42;2.78;;;1.40;;
23181;SDS011;11759;51.282;6.642;2023-03-14T08:08:11;3.97;;;1.80;;
23181;SDS011;11759;51.282;6.642;2023-03-14T08:10:37;4.75;;;1.73;;
23181;SDS011;11759;51.282;6.642;2023-03-14T08:13:05;3.40;;;2.05;;
23181;SDS011;11759;51.282;6.642;2023-03-14T08:15:31;2.50;;;1.70;;
23181;SDS011;11759;51.282;6.642;2023-03-14T08:17:58;2.53;;;2.13;;
23181;SDS011;11759;51.282;6.642;2023-03-14T08:20:26;2.55;;;1.90;;
23181;SDS011;11759;51.282;6.642;2023-03-14T08:22:57;3.08;;;1.90;;
23181;SDS011;11759;51.282;6.642;2023-03-14T08:25:25;3.50;;;1.80;;
23181;SDS011;11759;51.282;6.642;2023-03-14T08:27:52;2.75;;;1.80;;
23181;SDS011;11759;51.282;6.642;2023-03-14T08:30:19;7.40;;;1.77;;
23181;SDS011;11759;51.282;6.642;2023-03-14T08:32:46;2.35;;;1.77;;
23181;SDS011;11759;51.282;6.642;2023-03-14T08:35:14;2.88;;;1.70;;
23181;SDS011;11759;51.282;6.642;2023-03-14T08:37:41;1.75;;;1.52;;
23181;SDS011;11759;51.282;6.642;2023-03-14T08:40:08;4.85;;;2.28;;
23181;SDS011;11759;51.282;6.642;2023-03-14T08:42:36;4.45;;;2.00;;
23181;SDS011;11759;51.282;6.642;2023-03-14T08:45:04;3.45;;;2.20;;
23181;SDS011;11759;51.282;6.642;2023-03-14T08:47:31;4.35;;;2.10;;
23181;SDS011;11759;51.282;6.642;2023-03-14T08:49:58;6.30;;;2.47;;
23181;SDS011;11759;51.282;6.642;2023-03-14T08:52:24;3.28;;;2.05;;
23181;SDS011;11759;51.282;6.642;2023-03-14T08:54:51;4.57;;;2.47;;
23181;SDS011;11759;51.282;6.642;2023-03-14T08:57:18;7.95;;;2.60;;
23181;SDS011;11759;51.282;6.642;2023-03-14T08:59:44;7.05;;;2.28;;
23181;SDS011;11759;51.282;6.642;2023-03-14T09:02:11;3.33;;;1.88;;
23181;SDS011;11759;51.282;6.642;2023-03-14T09:04:39;4.38;;;2.30;;
23181;SDS011;11759;51.282;6.642;2023-03-14T09:07:05;5.40;;;2.08;;
23181;SDS011;11759;51.282;6.642;2023-03-14T09:09:32;5.57;;;2.10;;
23181;SDS011;11759;51.282;6.642;2023-03-14T09:11:58;5.05;;;1.60;;
23181;SDS011;11759;51.282;6.642;2023-03-14T09:14:25;3.53;;;0.95;;
23181;SDS011;11759;51.282;6.642;2023-03-14T09:16:52;2.30;;;1.00;;
23181;SDS011;11759;51.282;6.642;2023-03-14T09:19:18;1.80;;;1.00;;
23181;SDS011;11759;51.282;6.642;2023-03-14T09:21:45;3.47;;;1.10;;
23181;SDS011;11759;51.282;6.642;2023-03-14T09:24:11;2.15;;;0.90;;
23181;SDS011;11759;51.282;6.642;2023-03-14T09:26:38;3.30;;;1.13;;
23181;SDS011;11759;51.282;6.642;2023-03-14T09:29:05;5.20;;;1.30;;
23181;SDS011;11759;51.282;6.642;2023-03-14T09:31:31;3.97;;;1.45;;
23181;SDS011;11759;51.282;6.642;2023-03-14T09:33:58;4.15;;;1.67;;
23181;SDS011;11759;51.282;6.642;2023-03-14T09:36:24;3.50;;;1.63;;
23181;SDS011;11759;51.282;6.642;2023-03-14T09:38:51;4.57;;;1.60;;
23181;SDS011;11759;51.282;6.642;2023-03-14T09:41:21;8.07;;;2.40;;
23181;SDS011;11759;51.282;6.642;2023-03-14T09:44:27;3.72;;;2.00;;
23181;SDS011;11759;51.282;6.642;2023-03-14T09:46:50;5.25;;;2.13;;
23181;SDS011;11759;51.282;6.642;2023-03-14T09:49:23;7.55;;;2.97;;
23181;SDS011;11759;51.282;6.642;2023-03-14T09:51:53;7.13;;;2.60;;
23181;SDS011;11759;51.282;6.642;2023-03-14T09:56:56;4.70;;;2.83;;
23181;SDS011;11759;51.282;6.642;2023-03-14T09:59:23;7.20;;;3.40;;
23181;SDS011;11759;51.282;6.642;2023-03-14T10:01:49;8.98;;;3.30;;
23181;SDS011;11759;51.282;6.642;2023-03-14T10:04:17;8.25;;;2.97;;
23181;SDS011;11759;51.282;6.642;2023-03-14T10:06:49;4.80;;;2.70;;
23181;SDS011;11759;51.282;6.642;2023-03-14T10:09:20;9.35;;;3.20;;
23181;SDS011;11759;51.282;6.642;2023-03-14T10:11:53;8.95;;;3.28;;
23181;SDS011;11759;51.282;6.642;2023-03-14T10:14:31;5.45;;;3.08;;
23181;SDS011;11759;51.282;6.642;2023-03-14T10:17:06;7.30;;;2.95;;
23181;SDS011;11759;51.282;6.642;2023-03-14T10:19:36;7.68;;;3.67;;
23181;SDS011;11759;51.282;6.642;2023-03-14T10:22:04;6.38;;;3.22;;
23181;SDS011;11759;51.282;6.642;2023-03-14T10:24:32;5.15;;;2.67;;
23181;SDS011;11759;51.282;6.642;2023-03-14T10:27:02;6.85;;;2.92;;
23181;SDS011;11759;51.282;6.642;2023-03-14T10:29:31;5.80;;;2.27;;
23181;SDS011;11759;51.282;6.642;2023-03-14T10:32:00;5.35;;;2.60;;
23181;SDS011;11759;51.282;6.642;2023-03-14T10:34:32;4.85;;;2.10;;
23181;SDS011;11759;51.282;6.642;2023-03-14T10:37:05;8.90;;;2.90;;
23181;SDS011;11759;51.282;6.642;2023-03-14T10:42:19;5.55;;;3.40;;
23181;SDS011;11759;51.282;6.642;2023-03-14T10:44:49;4.57;;;3.10;;
23181;SDS011;11759;51.282;6.642;2023-03-14T10:47:21;9.15;;;3.00;;
23181;SDS011;11759;51.282;6.642;2023-03-14T10:49:50;5.32;;;2.47;;
23181;SDS011;11759;51.282;6.642;2023-03-14T10:52:26;7.45;;;2.05;;
23181;SDS011;11759;51.282;6.642;2023-03-14T10:55:14;8.63;;;2.28;;
23181;SDS011;11759;51.282;6.642;2023-03-14T10:57:41;4.95;;;2.60;;
23181;SDS011;11759;51.282;6.642;2023-03-14T11:00:12;7.28;;;2.88;;
23181;SDS011;11759;51.282;6.642;2023-03-14T11:02:49;5.07;;;2.38;;
23181;SDS011;11759;51.282;6.642;2023-03-14T11:05:55;9.15;;;3.22;;
23181;SDS011;11759;51.282;6.642;2023-03-14T11:08:24;7.63;;;2.58;;
23181;SDS011;11759;51.282;6.642;2023-03-14T11:24:22;3.15;;;2.00;;
23181;SDS011;11759;51.282;6.642;2023-03-14T11:27:13;5.75;;;2.10;;
23181;SDS011;11759;51.282;6.642;2023-03-14T11:35:14;4.25;;;1.60;;
23181;SDS011;11759;51.282;6.642;2023-03-14T11:37:48;5.57;;;1.60;;
23181;SDS011;11759;51.282;6.642;2023-03-14T11:40:19;7.88;;;1.70;;
23181;SDS011;11759;51.282;6.642;2023-03-14T11:42:55;6.97;;;2.00;;
23181;SDS011;11759;51.282;6.642;2023-03-14T11:45:26;5.80;;;1.95;;
23181;SDS011;11759;51.282;6.642;2023-03-14T11:48:06;5.20;;;1.90;;
23181;SDS011;11759;51.282;6.642;2023-03-14T11:50:36;5.65;;;1.58;;
23181;SDS011;11759;51.282;6.642;2023-03-14T11:56:08;6.28;;;1.60;;
23181;SDS011;11759;51.282;6.642;2023-03-14T11:58:39;6.90;;;1.70;;
23181;SDS011;11759;51.282;6.642;2023-03-14T12:01:12;2.38;;;1.50;;
23181;SDS011;11759;51.282;6.642;2023-03-14T12:03:52;7.35;;;1.70;;
23181;SDS011;11759;51.282;6.642;2023-03-14T12:06:24;5.35;;;2.00;;
23181;SDS011;11759;51.282;6.642;2023-03-14T12:09:02;7.55;;;1.80;;
23181;SDS011;11759;51.282;6.642;2023-03-14T12:14:17;9.75;;;1.73;;
23181;SDS011;11759;51.282;6.642;2023-03-14T12:17:05;8.35;;;1.52;;
23181;SDS011;11759;51.282;6.642;2023-03-14T12:19:40;8.20;;;2.15;;
23181;SDS011;11759;51.282;6.642;2023-03-14T12:25:01;6.80;;;1.90;;
23181;SDS011;11759;51.282;6.642;2023-03-14T12:27:46;6.13;;;1.55;;
23181;SDS011;11759;51.282;6.642;2023-03-14T12:32:41;9.27;;;1.52;;
23181;SDS011;11759;51.282;6.642;2023-03-14T12:38:02;6.00;;;1.25;;
23181;SDS011;11759;51.282;6.642;2023-03-14T12:40:31;7.93;;;1.45;;
23181;SDS011;11759;51.282;6.642;2023-03-14T12:43:03;8.18;;;1.50;;
23181;SDS011;11759;51.282;6.642;2023-03-14T12:45:37;11.18;;;2.13;;
23181;SDS011;11759;51.282;6.642;2023-03-14T12:48:10;7.45;;;1.55;;
23181;SDS011;11759;51.282;6.642;2023-03-14T12:50:52;6.57;;;1.45;;
23181;SDS011;11759;51.282;6.642;2023-03-14T13:01:24;9.90;;;2.25;;
23181;SDS011;11759;51.282;6.642;2023-03-14T13:03:52;10.85;;;2.03;;
23181;SDS011;11759;51.282;6.642;2023-03-14T13:11:58;23.17;;;3.10;;
23181;SDS011;11759;51.282;6.642;2023-03-14T13:14:27;28.20;;;4.03;;
23181;SDS011;11759;51.282;6.642;2023-03-14T13:16:55;34.80;;;5.70;;
23181;SDS011;11759;51.282;6.642;2023-03-14T13:19:23;20.67;;;2.85;;
23181;SDS011;11759;51.282;6.642;2023-03-14T13:21:52;24.63;;;4.78;;
23181;SDS011;11759;51.282;6.642;2023-03-14T13:24:24;23.10;;;3.03;;
23181;SDS011;11759;51.282;6.642;2023-03-14T13:26:53;33.15;;;4.13;;
23181;SDS011;11759;51.282;6.642;2023-03-14T13:29:21;21.05;;;3.17;;
23181;SDS011;11759;51.282;6.642;2023-03-14T13:31:53;23.98;;;3.08;;
23181;SDS011;11759;51.282;6.642;2023-03-14T13:34:24;24.50;;;3.83;;
23181;SDS011;11759;51.282;6.642;2023-03-14T13:36:55;21.73;;;3.20;;
23181;SDS011;11759;51.282;6.642;2023-03-14T13:39:22;22.20;;;3.03;;
23181;SDS011;11759;51.282;6.642;2023-03-14T13:42:00;23.52;;;3.33;;
23181;SDS011;11759;51.282;6.642;2023-03-14T13:44:34;35.13;;;4.13;;
23181;SDS011;11759;51.282;6.642;2023-03-14T13:47:04;26.33;;;3.47;;
23181;SDS011;11759;51.282;6.642;2023-03-14T13:49:35;21.63;;;3.53;;
23181;SDS011;11759;51.282;6.642;2023-03-14T13:52:02;24.33;;;3.17;;
23181;SDS011;11759;51.282;6.642;2023-03-14T13:54:30;29.40;;;4.25;;
23181;SDS011;11759;51.282;6.642;2023-03-14T13:57:01;20.95;;;2.78;;
23181;SDS011;11759;51.282;6.642;2023-03-14T13:59:32;20.98;;;2.95;;
23181;SDS011;11759;51.282;6.642;2023-03-14T14:02:01;18.88;;;2.65;;
23181;SDS011;11759;51.282;6.642;2023-03-14T14:04:32;22.50;;;3.20;;
23181;SDS011;11759;51.282;6.642;2023-03-14T14:06:59;23.85;;;3.25;;
23181;SDS011;11759;51.282;6.642;2023-03-14T14:09:30;20.20;;;2.90;;
23181;SDS011;11759;51.282;6.642;2023-03-14T14:12:03;25.25;;;3.58;;
23181;SDS011;11759;51.282;6.642;2023-03-14T14:17:13;18.35;;;3.00;;
23181;SDS011;11759;51.282;6.642;2023-03-14T14:19:43;19.15;;;2.75;;
23181;SDS011;11759;51.282;6.642;2023-03-14T14:22:10;22.00;;;3.33;;
23181;SDS011;11759;51.282;6.642;2023-03-14T14:24:37;19.70;;;3.10;;
23181;SDS011;11759;51.282;6.642;2023-03-14T14:29:41;10.48;;;2.40;;
23181;SDS011;11759;51.282;6.642;2023-03-14T14:34:41;17.27;;;2.83;;
23181;SDS011;11759;51.282;6.642;2023-03-14T14:37:22;15.40;;;2.33;;
23181;SDS011;11759;51.282;6.642;2023-03-14T14:39:54;12.75;;;2.05;;
23181;SDS011;11759;51.282;6.642;2023-03-14T14:42:24;21.50;;;3.10;;
23181;SDS011;11759;51.282;6.642;2023-03-14T14:44:52;9.07;;;2.70;;
23181;SDS011;11759;51.282;6.642;2023-03-14T14:47:23;8.10;;;2.35;;
23181;SDS011;11759;51.282;6.642;2023-03-14T14:49:51;10.38;;;1.98;;
23181;SDS011;11759;51.282;6.642;2023-03-14T14:52:31;11.52;;;2.78;;
23181;SDS011;11759;51.282;6.642;2023-03-14T14:55:18;13.73;;;2.55;;
23181;SDS011;11759;51.282;6.642;2023-03-14T14:57:50;16.00;;;2.15;;
23181;SDS011;11759;51.282;6.642;2023-03-14T15:00:19;10.77;;;2.05;;
23181;SDS011;11759;51.282;6.642;2023-03-14T15:03:10;11.00;;;1.98;;
23181;SDS011;11759;51.282;6.642;2023-03-14T15:05:37;14.95;;;2.35;;
23181;SDS011;11759;51.282;6.642;2023-03-14T15:08:08;8.68;;;2.17;;
23181;SDS011;11759;51.282;6.642;2023-03-14T15:10:36;11.73;;;2.38;;
23181;SDS011;11759;51.282;6.642;2023-03-14T15:13:02;12.40;;;2.10;;
23181;SDS011;11759;51.282;6.642;2023-03-14T15:15:29;14.98;;;2.42;;
23181;SDS011;11759;51.282;6.642;2023-03-14T15:17:56;8.73;;;1.90;;
23181;SDS011;11759;51.282;6.642;2023-03-14T15:20:22;15.30;;;2.80;;
23181;SDS011;11759;51.282;6.642;2023-03-14T15:22:49;14.95;;;2.78;;
23181;SDS011;11759;51.282;6.642;2023-03-14T15:25:16;8.15;;;1.80;;
23181;SDS011;11759;51.282;6.642;2023-03-14T15:28:03;13.30;;;2.67;;
23181;SDS011;11759;51.282;6.642;2023-03-14T15:30:31;11.35;;;2.47;;
23181;SDS011;11759;51.282;6.642;2023-03-14T15:32:57;10.60;;;1.88;;
23181;SDS011;11759;51.282;6.642;2023-03-14T15:35:24;12.43;;;2.13;;
23181;SDS011;11759;51.282;6.642;2023-03-14T15:37:51;12.93;;;1.95;;
23181;SDS011;11759;51.282;6.642;2023-03-14T15:40:17;8.85;;;2.20;;
23181;SDS011;11759;51.282;6.642;2023-03-14T15:42:44;8.93;;;2.72;;
23181;SDS011;11759;51.282;6.642;2023-03-14T15:45:11;10.80;;;2.03;;
23181;SDS011;11759;51.282;6.642;2023-03-14T15:47:37;12.05;;;2.25;;
23181;SDS011;11759;51.282;6.642;2023-03-14T15:50:04;6.18;;;2.25;;
23181;SDS011;11759;51.282;6.642;2023-03-14T15:52:31;11.05;;;2.05;;
23181;SDS011;11759;51.282;6.642;2023-03-14T15:54:58;14.23;;;2.45;;
23181;SDS011;11759;51.282;6.642;2023-03-14T15:57:24;11.32;;;2.10;;
23181;SDS011;11759;51.282;6.642;2023-03-14T15:59:51;8.35;;;1.75;;
23181;SDS011;11759;51.282;6.642;2023-03-14T16:02:17;10.23;;;1.75;;
23181;SDS011;11759;51.282;6.642;2023-03-14T16:04:44;8.60;;;2.10;;
23181;SDS011;11759;51.282;6.642;2023-03-14T16:07:11;9.88;;;1.63;;
23181;SDS011;11759;51.282;6.642;2023-03-14T16:09:37;11.27;;;2.25;;